Scali Del Teatro — 9HA3541 — position and weather

sailwx.info

Track history (hours):
 
Tides and Currents Weather Stations Pressure Air Temp Water Temp Dewpoint Dewpoint Depression Visibility Wind Speed Wind Dir Waves Ship Positions

Scali Del Teatro

Last reported at 2018-Jun-20 11:29 UTC. Time now 2018-Jun-23 21:45 UTC.
Position N 37°09' W 001°10'.

Length 88 m; draft 5.8 m.

Type: Ship (hazmat cat D). MMSI: 229713000.

Date/timePositionNaut miles runAvg speedWind from/ knotsBaromVisibWave heightAir tempDewpointWater temp
2018-Jun-20 11:29N 37°09' W 001°10'711.9
2018-Jun-20 10:54N 37°13' W 001°04'512.1
2018-Jun-20 10:30N 37°16' W 000°59'612.5
2018-Jun-20 10:01N 37°20' W 000°53'712.6
2018-Jun-20 09:29N 37°25' W 000°47'612.8
2018-Jun-20 09:00N 37°29' W 000°41'612.8
2018-Jun-20 08:31N 37°33' W 000°35'612.6
2018-Jun-20 08:00N 37°38' W 000°30'612.8
2018-Jun-20 07:31N 37°44' W 000°26'712.9
2018-Jun-20 07:00N 37°49' W 000°22'612.7
2018-Jun-20 06:30N 37°54' W 000°17'612.2
2018-Jun-20 06:01N 37°59' W 000°13'612.2
2018-Jun-20 05:30N 38°04' W 000°09'1012.3
2018-Jun-20 04:44N 38°12' W 000°01'512.3
2018-Jun-20 04:22N 38°16' E 000°02'712.3
2018-Jun-20 03:49N 38°21' E 000°07'412.4
2018-Jun-20 03:29N 38°25' E 000°10'99 3.2
2018-Jun-18 20:06N 40°02' E 000°32'411.6
2018-Jun-18 19:47N 40°03' E 000°37'4011.7
2018-Jun-18 16:21N 40°03' E 001°29'82 8.7
2018-Jun-18 06:54N 39°50' E 003°15'511.2
2018-Jun-18 06:29N 39°49' E 003°09'15 0.5
2018-Jun-17 01:55N 40°00' E 002°55'511.2
2018-Jun-17 01:30N 39°59' E 002°48'511.0
2018-Jun-17 01:00N 39°57' E 002°42'611.1
2018-Jun-17 00:30N 39°53' E 002°37'5211.2
2018-Jun-16 19:52N 39°23' E 001°42'411.8
2018-Jun-16 19:30N 39°20' E 001°37'611.8
2018-Jun-16 19:00N 39°17' E 001°31'611.6
2018-Jun-16 18:30N 39°13' E 001°25'611.5
2018-Jun-16 18:00N 39°10' E 001°19'611.6
2018-Jun-16 17:30N 39°07' E 001°13'612.2
2018-Jun-16 17:00N 39°03' E 001°07'612.1
2018-Jun-16 16:30N 38°59' E 001°01'612.0
2018-Jun-16 16:00N 38°54' E 000°56'611.8
2018-Jun-16 15:30N 38°50' E 000°51'611.6
2018-Jun-16 15:00N 38°46' E 000°45'611.7
2018-Jun-16 14:29N 38°41' E 000°41'611.6
2018-Jun-16 13:56N 38°36' E 000°36'511.5
2018-Jun-16 13:30N 38°32' E 000°32'611.6
2018-Jun-16 13:00N 38°27' E 000°28'611.5
2018-Jun-16 12:30N 38°23' E 000°23'611.4
2018-Jun-16 12:00N 38°19' E 000°18'611.5
2018-Jun-16 11:30N 38°14' E 000°13'611.5
2018-Jun-16 11:00N 38°10' E 000°09'611.6
2018-Jun-16 10:30N 38°06' E 000°04'611.6
2018-Jun-16 10:00N 38°01' W 000°01'611.5
2018-Jun-16 09:30N 37°57' W 000°06'511.1
2018-Jun-16 09:00N 37°52' W 000°10'611.1
2018-Jun-16 08:30N 37°48' W 000°15'611.4
2018-Jun-16 08:00N 37°44' W 000°19'611.2
2018-Jun-16 07:30N 37°39' W 000°24'611.3
2018-Jun-16 06:59N 37°35' W 000°28'511.2
2018-Jun-16 06:30N 37°31' W 000°34'611.1
2018-Jun-16 05:59N 37°31' W 000°41'511.0
2018-Jun-16 05:30N 37°31' W 000°48'911.2
2018-Jun-16 04:42N 37°32' W 000°59'1 0.1
2018-Jun-15 13:05N 37°31' W 000°57'112.2
2018-Jun-15 13:00N 37°31' W 000°56'612.2
2018-Jun-15 12:28N 37°32' W 000°48'611.9
2018-Jun-15 12:00N 37°31' W 000°41'611.7
2018-Jun-15 11:28N 37°34' W 000°34'4 8.6
2018-Jun-15 11:00N 37°37' W 000°30'510.4
2018-Jun-15 10:30N 37°41' W 000°26'510.2
2018-Jun-15 10:00N 37°45' W 000°22'1610.2
2018-Jun-15 08:26N 37°57' W 000°08'510.3
2018-Jun-15 08:00N 38°00' W 000°05'510.3
2018-Jun-15 07:30N 38°04' W 000°01'510.2
2018-Jun-15 07:00N 38°08' E 000°04'510.2
2018-Jun-15 06:30N 38°11' E 000°08'5 9.9
2018-Jun-15 06:00N 38°15' E 000°13'5 9.4
2018-Jun-15 05:29N 38°19' E 000°17'5 9.3
2018-Jun-15 04:55N 38°23' E 000°21'18 9.6
2018-Jun-15 03:02N 38°37' E 000°36'1 9.7
2018-Jun-15 02:57N 38°37' E 000°37'4 9.7
2018-Jun-15 02:30N 38°41' E 000°40'138 8.4
2018-Jun-14 10:07N 39°50' E 003°15'1 7.9
2018-Jun-14 10:00N 39°50' E 003°13'4 0.6
2018-Jun-14 04:07N 39°49' E 003°09'1 4.1
2018-Jun-14 03:59N 39°49' E 003°09'14 0.5
2018-Jun-13 00:16N 39°59' E 002°55'5 9.1
2018-Jun-12 23:45N 39°58' E 002°49'3 8.9
2018-Jun-12 23:22N 39°57' E 002°45'3 8.9
2018-Jun-12 22:59N 39°55' E 002°41'4 8.8
2018-Jun-12 22:29N 39°53' E 002°36'54 9.0
2018-Jun-12 16:32N 39°21' E 001°39'1 9.1
2018-Jun-12 16:23N 39°20' E 001°38'4 9.1
2018-Jun-12 15:59N 39°18' E 001°34'92 9.4
2018-Jun-12 06:09N 38°12' E 000°11'312.2
2018-Jun-12 05:54N 38°10' E 000°09'512.2
2018-Jun-12 05:30N 38°06' E 000°05'712.0
2018-Jun-12 04:54N 38°00' W 000°01'711.9
2018-Jun-12 04:21N 37°56' W 000°07'411.7
2018-Jun-12 04:00N 37°53' W 000°10'611.7
2018-Jun-12 03:30N 37°48' W 000°15'611.7
2018-Jun-12 03:00N 37°44' W 000°20'611.8
2018-Jun-12 02:30N 37°39' W 000°25'611.7
2018-Jun-12 02:00N 37°35' W 000°30'611.2
2018-Jun-12 01:29N 37°31' W 000°35'511.3
2018-Jun-12 01:00N 37°30' W 000°42'611.9
2018-Jun-12 00:30N 37°31' W 000°49'911.3
2018-Jun-11 23:43N 37°33' W 000°60'2 7.0
2018-Jun-11 23:30N 37°34' W 000°58'222 7.0
2018-Jun-10 15:58N 36°01' W 005°10'715.1
2018-Jun-10 15:31N 35°60' W 005°18'815.6
2018-Jun-10 15:00N 35°58' W 005°28'  
Track history (hours):
 
Tides and Currents Weather Stations Pressure Air Temp Water Temp Dewpoint Dewpoint Depression Visibility Wind Speed Wind Dir Waves Ship Positions

Scali Del Teatro

Last reported at 2018-Jun-20 11:29 UTC. Time now 2018-Jun-23 21:45 UTC.
Position N 37°09' W 001°10'.

Length 88 m; draft 5.8 m.

Type: Ship (hazmat cat D). MMSI: 229713000.

Date/timePositionNaut miles runAvg speedWind from/ knotsBaromVisibWave heightAir tempDewpointWater temp
2018-Jun-20 11:29N 37°09' W 001°10'711.9
2018-Jun-20 10:54N 37°13' W 001°04'512.1
2018-Jun-20 10:30N 37°16' W 000°59'612.5
2018-Jun-20 10:01N 37°20' W 000°53'712.6
2018-Jun-20 09:29N 37°25' W 000°47'612.8
2018-Jun-20 09:00N 37°29' W 000°41'612.8
2018-Jun-20 08:31N 37°33' W 000°35'612.6
2018-Jun-20 08:00N 37°38' W 000°30'612.8
2018-Jun-20 07:31N 37°44' W 000°26'712.9
2018-Jun-20 07:00N 37°49' W 000°22'612.7
2018-Jun-20 06:30N 37°54' W 000°17'612.2
2018-Jun-20 06:01N 37°59' W 000°13'612.2
2018-Jun-20 05:30N 38°04' W 000°09'1012.3
2018-Jun-20 04:44N 38°12' W 000°01'512.3
2018-Jun-20 04:22N 38°16' E 000°02'712.3
2018-Jun-20 03:49N 38°21' E 000°07'412.4
2018-Jun-20 03:29N 38°25' E 000°10'99 3.2
2018-Jun-18 20:06N 40°02' E 000°32'411.6
2018-Jun-18 19:47N 40°03' E 000°37'4011.7
2018-Jun-18 16:21N 40°03' E 001°29'82 8.7
2018-Jun-18 06:54N 39°50' E 003°15'511.2
2018-Jun-18 06:29N 39°49' E 003°09'15 0.5
2018-Jun-17 01:55N 40°00' E 002°55'511.2
2018-Jun-17 01:30N 39°59' E 002°48'511.0
2018-Jun-17 01:00N 39°57' E 002°42'611.1
2018-Jun-17 00:30N 39°53' E 002°37'5211.2
2018-Jun-16 19:52N 39°23' E 001°42'411.8
2018-Jun-16 19:30N 39°20' E 001°37'611.8
2018-Jun-16 19:00N 39°17' E 001°31'611.6
2018-Jun-16 18:30N 39°13' E 001°25'611.5
2018-Jun-16 18:00N 39°10' E 001°19'611.6
2018-Jun-16 17:30N 39°07' E 001°13'612.2
2018-Jun-16 17:00N 39°03' E 001°07'612.1
2018-Jun-16 16:30N 38°59' E 001°01'612.0
2018-Jun-16 16:00N 38°54' E 000°56'611.8
2018-Jun-16 15:30N 38°50' E 000°51'611.6
2018-Jun-16 15:00N 38°46' E 000°45'611.7
2018-Jun-16 14:29N 38°41' E 000°41'611.6
2018-Jun-16 13:56N 38°36' E 000°36'511.5
2018-Jun-16 13:30N 38°32' E 000°32'611.6
2018-Jun-16 13:00N 38°27' E 000°28'611.5
2018-Jun-16 12:30N 38°23' E 000°23'611.4
2018-Jun-16 12:00N 38°19' E 000°18'611.5
2018-Jun-16 11:30N 38°14' E 000°13'611.5
2018-Jun-16 11:00N 38°10' E 000°09'611.6
2018-Jun-16 10:30N 38°06' E 000°04'611.6
2018-Jun-16 10:00N 38°01' W 000°01'611.5
2018-Jun-16 09:30N 37°57' W 000°06'511.1
2018-Jun-16 09:00N 37°52' W 000°10'611.1
2018-Jun-16 08:30N 37°48' W 000°15'611.4
2018-Jun-16 08:00N 37°44' W 000°19'611.2
2018-Jun-16 07:30N 37°39' W 000°24'611.3
2018-Jun-16 06:59N 37°35' W 000°28'511.2
2018-Jun-16 06:30N 37°31' W 000°34'611.1
2018-Jun-16 05:59N 37°31' W 000°41'511.0
2018-Jun-16 05:30N 37°31' W 000°48'911.2
2018-Jun-16 04:42N 37°32' W 000°59'1 0.1
2018-Jun-15 13:05N 37°31' W 000°57'112.2
2018-Jun-15 13:00N 37°31' W 000°56'612.2
2018-Jun-15 12:28N 37°32' W 000°48'611.9
2018-Jun-15 12:00N 37°31' W 000°41'611.7
2018-Jun-15 11:28N 37°34' W 000°34'4 8.6
2018-Jun-15 11:00N 37°37' W 000°30'510.4
2018-Jun-15 10:30N 37°41' W 000°26'510.2
2018-Jun-15 10:00N 37°45' W 000°22'1610.2
2018-Jun-15 08:26N 37°57' W 000°08'510.3
2018-Jun-15 08:00N 38°00' W 000°05'510.3
2018-Jun-15 07:30N 38°04' W 000°01'510.2
2018-Jun-15 07:00N 38°08' E 000°04'510.2
2018-Jun-15 06:30N 38°11' E 000°08'5 9.9
2018-Jun-15 06:00N 38°15' E 000°13'5 9.4
2018-Jun-15 05:29N 38°19' E 000°17'5 9.3
2018-Jun-15 04:55N 38°23' E 000°21'18 9.6
2018-Jun-15 03:02N 38°37' E 000°36'1 9.7
2018-Jun-15 02:57N 38°37' E 000°37'4 9.7
2018-Jun-15 02:30N 38°41' E 000°40'138 8.4
2018-Jun-14 10:07N 39°50' E 003°15'1 7.9
2018-Jun-14 10:00N 39°50' E 003°13'4 0.6
2018-Jun-14 04:07N 39°49' E 003°09'1 4.1
2018-Jun-14 03:59N 39°49' E 003°09'14 0.5
2018-Jun-13 00:16N 39°59' E 002°55'5 9.1
2018-Jun-12 23:45N 39°58' E 002°49'3 8.9
2018-Jun-12 23:22N 39°57' E 002°45'3 8.9
2018-Jun-12 22:59N 39°55' E 002°41'4 8.8
2018-Jun-12 22:29N 39°53' E 002°36'54 9.0
2018-Jun-12 16:32N 39°21' E 001°39'1 9.1
2018-Jun-12 16:23N 39°20' E 001°38'4 9.1
2018-Jun-12 15:59N 39°18' E 001°34'92 9.4
2018-Jun-12 06:09N 38°12' E 000°11'312.2
2018-Jun-12 05:54N 38°10' E 000°09'512.2
2018-Jun-12 05:30N 38°06' E 000°05'712.0
2018-Jun-12 04:54N 38°00' W 000°01'711.9
2018-Jun-12 04:21N 37°56' W 000°07'411.7
2018-Jun-12 04:00N 37°53' W 000°10'611.7
2018-Jun-12 03:30N 37°48' W 000°15'611.7
2018-Jun-12 03:00N 37°44' W 000°20'611.8
2018-Jun-12 02:30N 37°39' W 000°25'611.7
2018-Jun-12 02:00N 37°35' W 000°30'611.2
2018-Jun-12 01:29N 37°31' W 000°35'511.3
2018-Jun-12 01:00N 37°30' W 000°42'611.9
2018-Jun-12 00:30N 37°31' W 000°49'911.3
2018-Jun-11 23:43N 37°33' W 000°60'2 7.0
2018-Jun-11 23:30N 37°34' W 000°58'222 7.0
2018-Jun-10 15:58N 36°01' W 005°10'715.1
2018-Jun-10 15:31N 35°60' W 005°18'815.6
2018-Jun-10 15:00N 35°58' W 005°28'  

Dump ship's entire track history